Pagrindinis puslapis
METAR-TAF:

METAR-TAF

Oro uostai :

Moldė, Norvegija

platuma: 62-45N, ilguma: 007-16E, Aukštis: 0 m

Dabartinis oras

Ataskaita buvo paskelbta 20 minutes, ne 19:50 UTC
Vėjas 5 kt iš Vakarų
Temperatūra 9°C
Drėgmė 87%
Slėgis 1007 hPa
Matomumas 10 km arba daugiau
Išsisklaidę debesys ne aukštis 2400 ft
Su prošvaistėmis ne aukštis 4300 ft
lietus

METAR: ENML 301950Z 26005KT 9999 -RA SCT024 BKN043 09/07 Q1007

Laikas: 21:10 (20:10 UTC)

Prognozė

Ataskaita buvo paskelbta 6 valandos ir 10 minutes, ne 14:00 UTC
Prognozė galioja nuo 30 metu 15 UTC su 30 metu 20 UTC
Vėjas 12 kt iš Rytų/Šiaurės Rytų
Matomumas 10 km arba daugiau
Išsisklaidę debesys ne aukštis 3000 ft
Tapsmas
nuo 30 metu 16 UTC su 30 metu 18 UTC
Vėjas 15 kt iš Vakarų/Pietvakarių su gūsio iki 25 kt
Laikinai
nuo 30 metu 16 UTC su 30 metu 20 UTC
Su prošvaistėmis ne aukštis 1400 ft
lietus

TAF: ENML 301400Z 3015/3020 07012KT 9999 SCT030 BECMG 3016/3018 25015G25KT TEMPO 3016/3020 RA BKN014

Orai ataskaitas ir orų prognozės (METAR, TAF).

turimą stotys yra geltonos ir raudonos taškus žemėlapyje.

Perkelti pele per norėdami pamatyti stoties vardą.

Tada spustelėkite, norėdami matyti oro stebėjimo ir prognozės.

Norėdami pakeisti žemėlapį: spustelėkite ant žalios mygtukų su juodo kryžiaus žemyn,; žalią mygtuką su brūkšneliu, jei norite nutolinti; arba žalių rodyklių gretimoms žemėlapius.


METAR-TAF: